createdAt,value
2022-12-14T00:01:37.998Z,97436.55
2022-12-14T00:04:05.643Z,97430.45
2022-12-14T00:06:34.637Z,97435.20
2022-12-14T00:09:04.795Z,97439.11
2022-12-14T00:11:34.005Z,97440.91
2022-12-14T00:14:03.356Z,97440.91
2022-12-14T00:16:33.795Z,97438.45
2022-12-14T00:19:02.179Z,97443.47
2022-12-14T00:21:30.076Z,97445.07
2022-12-14T00:23:59.203Z,97449.81
2022-12-14T00:26:30.619Z,97447.16
2022-12-14T00:29:00.766Z,97451.23
2022-12-14T00:31:29.898Z,97456.80
2022-12-14T00:33:58.089Z,97453.93
2022-12-14T00:36:25.848Z,97454.92
2022-12-14T00:38:53.554Z,97454.92
2022-12-14T00:41:21.289Z,97449.56
2022-12-14T00:43:49.275Z,97450.36
2022-12-14T00:46:18.217Z,97443.28
2022-12-14T00:48:46.564Z,97443.28
2022-12-14T00:51:14.503Z,97434.78
2022-12-14T00:53:44.016Z,97434.78
2022-12-14T00:56:11.971Z,97432.59
2022-12-14T00:58:39.865Z,97430.94
2022-12-14T01:01:12.996Z,97440.55
2022-12-14T01:03:42.400Z,97435.98
2022-12-14T01:06:17.464Z,97443.66
2022-12-14T01:08:45.351Z,97442.24
2022-12-14T01:11:14.143Z,97441.20
2022-12-14T01:13:42.401Z,97439.08
2022-12-14T01:16:14.401Z,97436.95
2022-12-14T01:18:43.540Z,97432.70
2022-12-14T01:21:18.998Z,97436.15
2022-12-14T01:23:48.574Z,97434.64
2022-12-14T01:26:17.673Z,97434.64
2022-12-14T01:28:47.613Z,97418.97
2022-12-14T01:31:19.342Z,97414.72
2022-12-14T01:33:47.993Z,97414.72
2022-12-14T01:36:26.076Z,97414.80
2022-12-14T01:38:57.806Z,97414.80
2022-12-14T01:41:30.636Z,97399.60
2022-12-14T01:44:05.998Z,97401.94
2022-12-14T01:47:07.385Z,97401.20
2022-12-14T01:49:43.264Z,97401.20
2022-12-14T01:52:25.466Z,97407.23
2022-12-14T01:55:03.318Z,97407.82
2022-12-14T01:57:36.509Z,97409.42
2022-12-14T02:00:08.483Z,97410.00
2022-12-14T02:02:41.479Z,97409.51
2022-12-14T02:05:10.853Z,97412.98
2022-12-14T02:07:40.803Z,97415.33
2022-12-14T02:10:09.848Z,97415.33
2022-12-14T02:12:51.518Z,97422.47
2022-12-14T02:15:19.732Z,97426.44
2022-12-14T02:17:48.473Z,97429.55
2022-12-14T02:20:18.382Z,97435.62
2022-12-14T02:23:04.423Z,97432.58
2022-12-14T02:26:11.898Z,97427.28
2022-12-14T02:29:22.943Z,97425.41
2022-12-14T02:32:26.798Z,97421.52
2022-12-14T02:35:13.916Z,97421.06
2022-12-14T02:38:10.279Z,97416.50
2022-12-14T02:40:46.813Z,97417.55
2022-12-14T02:43:39.746Z,97419.98
2022-12-14T02:46:50.217Z,97423.43
2022-12-14T02:49:42.750Z,97427.95
2022-12-14T02:52:42.037Z,97411.80
2022-12-14T02:55:30.057Z,97413.67
2022-12-14T02:58:08.993Z,97409.09
2022-12-14T03:00:38.275Z,97409.09
2022-12-14T03:03:06.760Z,97421.52
2022-12-14T03:05:35.847Z,97418.02
2022-12-14T03:08:16.193Z,97416.75
2022-12-14T03:11:02.527Z,97414.63
2022-12-14T03:13:51.013Z,97416.70
2022-12-14T03:16:29.438Z,97425.47
2022-12-14T03:19:19.205Z,97408.20
2022-12-14T03:22:00.710Z,97409.33
2022-12-14T03:24:39.335Z,97408.89
2022-12-14T03:27:23.972Z,97403.66
2022-12-14T03:30:05.737Z,97399.96
2022-12-14T03:32:37.626Z,97397.50
2022-12-14T03:35:13.398Z,97405.23
2022-12-14T03:37:53.085Z,97404.59
2022-12-14T03:40:23.648Z,97406.22
2022-12-14T03:43:11.267Z,97402.25
2022-12-14T03:45:50.533Z,97397.50
2022-12-14T03:48:47.581Z,97386.36
2022-12-14T03:51:32.817Z,97386.36
2022-12-14T03:54:24.193Z,97377.09
2022-12-14T03:57:22.743Z,97373.59
2022-12-14T03:59:55.655Z,97370.86
2022-12-14T04:02:33.976Z,97376.89
2022-12-14T04:05:12.154Z,97381.64
2022-12-14T04:07:54.461Z,97375.20
2022-12-14T04:10:48.581Z,97373.58
2022-12-14T04:13:40.367Z,97374.59
2022-12-14T04:16:33.433Z,97370.63
2022-12-14T04:19:06.535Z,97373.49
2022-12-14T04:21:47.962Z,97377.89
2022-12-14T04:24:39.188Z,97366.73
2022-12-14T04:27:24.031Z,97356.20
2022-12-14T04:29:57.803Z,97356.47
2022-12-14T04:32:46.141Z,97365.00
2022-12-14T04:35:40.065Z,97356.09
2022-12-14T04:38:12.929Z,97352.52
2022-12-14T04:40:48.827Z,97352.84
2022-12-14T04:43:23.787Z,97351.55
2022-12-14T04:46:11.400Z,97352.66
2022-12-14T04:48:57.095Z,97348.16
2022-12-14T04:51:53.118Z,97342.28
2022-12-14T04:54:40.518Z,97351.08
2022-12-14T04:57:47.087Z,97351.08
2022-12-14T05:00:15.881Z,97351.18
2022-12-14T05:03:17.818Z,97363.74
2022-12-14T05:05:59.109Z,97355.16
2022-12-14T05:08:52.939Z,97355.63
2022-12-14T05:11:54.920Z,97361.10
2022-12-14T05:14:33.947Z,97348.86
2022-12-14T05:17:08.797Z,97354.67
2022-12-14T05:19:34.745Z,97351.69
2022-12-14T05:22:07.900Z,97349.48
2022-12-14T05:24:35.942Z,97354.18
2022-12-14T05:27:03.763Z,97354.45
2022-12-14T05:29:31.685Z,97354.45
2022-12-14T05:32:00.005Z,97359.98
2022-12-14T05:34:27.945Z,97354.91
2022-12-14T05:36:55.254Z,97357.17
2022-12-14T05:39:22.940Z,97360.09
2022-12-14T05:41:50.554Z,97371.48
2022-12-14T05:44:18.040Z,97364.93
2022-12-14T05:46:46.051Z,97367.09
2022-12-14T05:49:13.759Z,97363.77
2022-12-14T05:51:41.552Z,97366.61
2022-12-14T05:54:09.230Z,97360.89
2022-12-14T05:56:37.023Z,97367.66
2022-12-14T05:59:04.593Z,97369.91
2022-12-14T06:01:32.426Z,97369.41
2022-12-14T06:04:00.160Z,97370.55
2022-12-14T06:06:27.877Z,97369.28
2022-12-14T06:08:55.810Z,97375.72
2022-12-14T06:11:23.821Z,97372.02
2022-12-14T06:13:51.806Z,97361.44
2022-12-14T06:16:26.142Z,97372.73
2022-12-14T06:18:57.710Z,97369.99
2022-12-14T06:21:32.717Z,97370.55
2022-12-14T06:24:01.144Z,97375.28
2022-12-14T06:26:30.962Z,97375.28
2022-12-14T06:28:59.559Z,97382.27
2022-12-14T06:31:32.499Z,97385.78
2022-12-14T06:34:02.521Z,97383.41
2022-12-14T06:36:34.631Z,97389.75
2022-12-14T06:39:06.993Z,97392.92
2022-12-14T06:41:35.121Z,97387.95
2022-12-14T06:44:06.540Z,97392.02
2022-12-14T06:46:35.467Z,97393.73
2022-12-14T06:49:07.847Z,97377.42
2022-12-14T06:51:40.033Z,97377.42
2022-12-14T06:54:10.416Z,97377.48
2022-12-14T06:56:40.172Z,97383.71
2022-12-14T06:59:08.803Z,97373.48
2022-12-14T07:01:38.100Z,97380.84
2022-12-14T07:04:07.622Z,97369.06
2022-12-14T07:06:39.974Z,97361.52
2022-12-14T07:09:11.732Z,97367.22
2022-12-14T07:11:39.903Z,97354.61
2022-12-14T07:14:07.788Z,97361.61
2022-12-14T07:16:36.475Z,97365.34
2022-12-14T07:19:04.497Z,97363.23
2022-12-14T07:21:33.345Z,97360.58
2022-12-14T07:24:01.288Z,97360.58
2022-12-14T07:26:30.134Z,97354.73
2022-12-14T07:29:01.043Z,97352.73
2022-12-14T07:31:29.326Z,97352.73
2022-12-14T07:33:59.781Z,97351.42
2022-12-14T07:36:30.126Z,97348.55
2022-12-14T07:38:58.288Z,97345.90
2022-12-14T07:41:31.259Z,97354.88
2022-12-14T07:44:00.900Z,97356.78
2022-12-14T07:46:31.503Z,97348.87
2022-12-14T07:49:00.728Z,97351.81
2022-12-14T07:51:32.671Z,97354.19
2022-12-14T07:54:03.482Z,97356.64
2022-12-14T07:56:35.414Z,97346.67
2022-12-14T07:59:07.791Z,97338.57
2022-12-14T08:01:37.155Z,97356.02
2022-12-14T08:04:11.527Z,97355.86
2022-12-14T08:06:40.677Z,97355.86
2022-12-14T08:09:10.930Z,97357.78
2022-12-14T08:11:39.578Z,97356.02
2022-12-14T08:14:11.937Z,97347.05
2022-12-14T08:16:39.717Z,97342.41
2022-12-14T08:19:07.573Z,97335.34
2022-12-14T08:21:35.426Z,97334.42
2022-12-14T08:24:04.323Z,97334.42
2022-12-14T08:26:35.805Z,97334.47
2022-12-14T08:29:02.053Z,97331.70
2022-12-14T08:31:30.678Z,97331.70
2022-12-14T08:34:00.193Z,97322.72
2022-12-14T08:36:32.147Z,97317.06
2022-12-14T08:39:04.306Z,97319.75
2022-12-14T08:41:32.451Z,97318.43
2022-12-14T08:44:02.347Z,97302.53
2022-12-14T08:46:33.097Z,97304.46
2022-12-14T08:49:01.366Z,97306.09
2022-12-14T08:51:29.617Z,97297.93
2022-12-14T08:53:57.967Z,97289.02
2022-12-14T08:56:28.072Z,97270.24
2022-12-14T08:58:56.970Z,97271.39
2022-12-14T09:01:33.557Z,97253.38
2022-12-14T09:04:08.523Z,97249.72
2022-12-14T09:06:38.887Z,97250.80
2022-12-14T09:09:15.241Z,97245.79
2022-12-14T09:11:37.776Z,97258.34
2022-12-14T09:14:05.401Z,97262.63
2022-12-14T09:16:33.480Z,97259.23
2022-12-14T09:19:01.123Z,97264.88
2022-12-14T09:21:28.858Z,97272.61
2022-12-14T09:23:59.651Z,97270.25
2022-12-14T09:26:26.265Z,97256.16
2022-12-14T09:28:56.944Z,97253.49
2022-12-14T09:31:27.174Z,97252.97
2022-12-14T09:33:55.597Z,97248.96
2022-12-14T09:36:28.793Z,97237.25
2022-12-14T09:38:57.127Z,97237.51
2022-12-14T09:41:42.347Z,97227.41
2022-12-14T09:44:47.693Z,97227.41
2022-12-14T09:47:36.094Z,97227.41
2022-12-14T09:50:08.959Z,97209.55
2022-12-14T09:52:46.824Z,97194.63
2022-12-14T09:55:40.588Z,97198.89
2022-12-14T09:58:25.153Z,97189.84
2022-12-14T10:01:22.468Z,97183.42
2022-12-14T10:04:01.214Z,97179.19
2022-12-14T10:06:57.567Z,97169.57
2022-12-14T10:10:03.288Z,97167.44
2022-12-14T10:12:56.910Z,97151.69
2022-12-14T10:16:05.857Z,97140.47
2022-12-14T10:18:59.898Z,97134.33
2022-12-14T10:21:36.427Z,97124.69
2022-12-14T10:24:06.307Z,97116.41
2022-12-14T10:26:42.229Z,97100.66
2022-12-14T10:29:32.881Z,97101.96
2022-12-14T10:32:08.930Z,97094.75
2022-12-14T10:34:40.192Z,97101.14
2022-12-14T10:37:16.341Z,97106.19
2022-12-14T10:40:17.435Z,97101.39
2022-12-14T10:43:23.269Z,97098.98
2022-12-14T10:46:01.248Z,97100.82
2022-12-14T10:48:40.660Z,97093.58
2022-12-14T10:51:19.803Z,97085.31
2022-12-14T10:54:04.479Z,97074.56
2022-12-14T10:56:34.850Z,97066.27
2022-12-14T10:59:23.474Z,97064.89
2022-12-14T11:02:25.424Z,97059.24
2022-12-14T11:05:03.575Z,97058.61
2022-12-14T11:07:39.058Z,97057.70
2022-12-14T11:10:30.238Z,97057.90
2022-12-14T11:13:20.461Z,97050.38
2022-12-14T11:15:53.654Z,97052.50
2022-12-14T11:18:31.161Z,97048.23
2022-12-14T11:21:03.364Z,97041.56
2022-12-14T11:23:42.213Z,97033.55
2022-12-14T11:26:14.968Z,97025.23
2022-12-14T11:28:52.422Z,97032.66
2022-12-14T11:31:39.201Z,97030.98
2022-12-14T11:34:22.261Z,97027.23
2022-12-14T11:36:50.211Z,97029.89
2022-12-14T11:39:25.118Z,97022.62
2022-12-14T11:42:02.651Z,97023.14
2022-12-14T11:44:36.198Z,97025.83
2022-12-14T11:47:15.915Z,97015.14
2022-12-14T11:49:48.992Z,97016.48
2022-12-14T11:52:42.753Z,97010.59
2022-12-14T11:55:26.707Z,97002.03
2022-12-14T11:57:58.445Z,97005.79
2022-12-14T12:00:46.969Z,97009.02
2022-12-14T12:03:21.105Z,97014.95
2022-12-14T12:05:50.621Z,97001.59
2022-12-14T12:08:28.589Z,96998.92
2022-12-14T12:11:02.140Z,96989.56
2022-12-14T12:13:38.928Z,96989.75
2022-12-14T12:16:17.152Z,96979.59
2022-12-14T12:19:12.361Z,96984.09
2022-12-14T12:21:45.043Z,96981.95
2022-12-14T12:24:30.420Z,96972.61
2022-12-14T12:27:02.398Z,96971.28
2022-12-14T12:29:37.101Z,96963.55
2022-12-14T12:32:19.524Z,96960.60
2022-12-14T12:35:12.314Z,96963.55
2022-12-14T12:38:06.854Z,96969.40
2022-12-14T12:41:01.913Z,96957.11
2022-12-14T12:43:43.501Z,96957.84
2022-12-14T12:46:17.301Z,96949.81
2022-12-14T12:49:08.143Z,96940.14
2022-12-14T12:51:56.043Z,96939.30
2022-12-14T12:54:52.585Z,96939.59
2022-12-14T12:57:21.392Z,96937.22
2022-12-14T12:59:53.295Z,96936.70
2022-12-14T13:02:38.036Z,96933.25
2022-12-14T13:05:44.367Z,96927.66
2022-12-14T13:07:52.600Z,96934.09
2022-12-14T13:10:28.000Z,96933.56
2022-12-14T13:13:09.919Z,96929.06
2022-12-14T13:15:49.076Z,96929.61
2022-12-14T13:18:59.538Z,96929.31
2022-12-14T13:21:31.920Z,96933.84
2022-12-14T13:23:59.649Z,96930.09
2022-12-14T13:29:16.716Z,96927.74
2022-12-14T13:32:24.875Z,96933.14
2022-12-14T13:35:32.477Z,96929.94
2022-12-14T13:38:33.960Z,96939.38
2022-12-14T13:41:36.006Z,96936.78
2022-12-14T13:44:35.766Z,96937.68
2022-12-14T13:47:06.432Z,96935.88
2022-12-14T13:49:35.718Z,96942.86
2022-12-14T13:52:03.582Z,96944.25
2022-12-14T13:54:37.800Z,96940.55
2022-12-14T13:57:15.780Z,96943.25
2022-12-14T13:59:51.667Z,96939.30
2022-12-14T14:02:34.457Z,96938.56
2022-12-14T14:05:20.998Z,96940.45
2022-12-14T14:08:33.267Z,96942.38
2022-12-14T14:11:13.954Z,96944.02
2022-12-14T14:13:32.342Z,96946.44
2022-12-14T14:16:27.858Z,96933.36
2022-12-14T14:18:54.031Z,96933.65
2022-12-14T14:21:29.574Z,96931.81
2022-12-14T14:24:17.247Z,96922.98
2022-12-14T14:27:11.268Z,96914.23
2022-12-14T14:29:50.386Z,96909.69
2022-12-14T14:32:39.292Z,96910.23
2022-12-14T14:35:24.409Z,96906.77
2022-12-14T14:38:01.921Z,96904.09
2022-12-14T14:41:06.713Z,96904.59
2022-12-14T14:43:07.389Z,96904.88
2022-12-14T14:45:48.954Z,96894.95
2022-12-14T14:48:36.897Z,96890.70
2022-12-14T14:51:24.690Z,96884.03
2022-12-14T14:54:56.142Z,96874.44
2022-12-14T14:56:53.038Z,96866.69
2022-12-14T14:59:31.589Z,96869.36
2022-12-14T15:02:03.582Z,96866.42
2022-12-14T15:04:47.544Z,96862.94
2022-12-14T15:07:23.351Z,96856.02
2022-12-14T15:10:27.781Z,96862.94
2022-12-14T15:12:58.774Z,96858.93
2022-12-14T15:15:40.632Z,96857.59
2022-12-14T15:18:28.285Z,96850.91
2022-12-14T15:21:09.703Z,96839.94
2022-12-14T15:23:52.760Z,96848.48
2022-12-14T15:26:27.943Z,96842.04
2022-12-14T15:28:59.960Z,96832.70
2022-12-14T15:31:32.459Z,96828.16
2022-12-14T15:34:01.570Z,96825.48
2022-12-14T15:36:37.456Z,96821.73
2022-12-14T15:39:05.778Z,96817.47
2022-12-14T15:41:33.722Z,96828.94
2022-12-14T15:44:01.657Z,96815.09
2022-12-14T15:46:35.266Z,96816.14
2022-12-14T15:49:07.349Z,96815.89
2022-12-14T15:51:44.146Z,96811.05
2022-12-14T15:54:18.859Z,96801.70
2022-12-14T15:56:58.101Z,96795.03
2022-12-14T15:59:31.857Z,96799.58
2022-12-14T16:02:17.144Z,96798.23
2022-12-14T16:04:46.043Z,96788.89
2022-12-14T16:07:24.338Z,96787.81
2022-12-14T16:09:58.935Z,96786.77
2022-12-14T16:12:48.766Z,96783.27
2022-12-14T16:15:20.265Z,96777.69
2022-12-14T16:17:50.197Z,96780.11
2022-12-14T16:20:29.195Z,96776.59
2022-12-14T16:23:20.518Z,96780.60
2022-12-14T16:25:59.625Z,96784.05
2022-12-14T16:28:32.249Z,96785.37
2022-12-14T16:31:07.561Z,96779.80
2022-12-14T16:33:39.332Z,96771.53
2022-12-14T16:36:16.889Z,96777.13
2022-12-14T16:39:07.448Z,96777.42
2022-12-14T16:41:57.979Z,96777.73
2022-12-14T16:44:37.804Z,96777.50
2022-12-14T16:47:17.086Z,96780.73
2022-12-14T16:49:59.342Z,96788.75
2022-12-14T16:52:32.670Z,96798.63
2022-12-14T16:55:14.220Z,96811.48
2022-12-14T16:57:55.257Z,96807.43
2022-12-14T17:00:29.853Z,96808.81
2022-12-14T17:03:22.498Z,96805.59
2022-12-14T17:05:54.632Z,96812.28
2022-12-14T17:08:22.319Z,96812.23
2022-12-14T17:10:50.407Z,96813.84
2022-12-14T17:13:18.026Z,96806.89
2022-12-14T17:16:05.490Z,96804.75
2022-12-14T17:18:39.415Z,96801.78
2022-12-14T17:21:11.572Z,96801.52
2022-12-14T17:23:42.257Z,96799.64
2022-12-14T17:26:21.207Z,96801.23
2022-12-14T17:28:49.798Z,96808.75
2022-12-14T17:31:21.967Z,96801.23
2022-12-14T17:33:53.339Z,96793.77
2022-12-14T17:36:20.834Z,96798.27
2022-12-14T17:38:48.427Z,96797.20
2022-12-14T17:41:26.806Z,96808.11
2022-12-14T17:43:57.235Z,96813.45
2022-12-14T17:46:25.767Z,96812.91
2022-12-14T17:48:53.519Z,96801.39
2022-12-14T17:51:28.702Z,96804.31
2022-12-14T17:53:58.058Z,96807.51
2022-12-14T17:56:25.497Z,96809.87
2022-12-14T17:58:53.706Z,96803.97
2022-12-14T18:01:23.949Z,96800.98
2022-12-14T18:03:53.899Z,96799.58
2022-12-14T18:06:21.825Z,96797.93
2022-12-14T18:08:49.593Z,96790.69
2022-12-14T18:11:23.026Z,96791.44
2022-12-14T18:13:50.402Z,96780.75
2022-12-14T18:16:20.741Z,96778.60
2022-12-14T18:18:49.219Z,96773.73
2022-12-14T18:21:27.577Z,96769.95
2022-12-14T18:23:56.341Z,96778.73
2022-12-14T18:26:23.900Z,96780.31
2022-12-14T18:28:53.966Z,96770.45
2022-12-14T18:31:35.611Z,96766.73
2022-12-14T18:34:04.408Z,96751.25
2022-12-14T18:36:32.254Z,96756.35
2022-12-14T18:39:00.690Z,96752.91
2022-12-14T18:41:29.261Z,96758.25
2022-12-14T18:43:57.119Z,96750.78
2022-12-14T18:46:24.704Z,96751.35
2022-12-14T18:48:53.124Z,96739.90
2022-12-14T18:51:23.448Z,96735.95
2022-12-14T18:53:54.780Z,96739.43
2022-12-14T18:56:24.764Z,96741.02
2022-12-14T18:58:52.322Z,96743.19
2022-12-14T19:01:24.170Z,96738.09
2022-12-14T19:03:52.167Z,96724.98
2022-12-14T19:06:44.900Z,96717.75
2022-12-14T19:08:57.072Z,96722.22
2022-12-14T19:11:34.966Z,96718.44
2022-12-14T19:14:02.509Z,96717.08
2022-12-14T19:16:29.886Z,96719.97
2022-12-14T19:18:57.859Z,96712.50
2022-12-14T19:21:26.185Z,96699.66
2022-12-14T19:23:55.166Z,96697.83
2022-12-14T19:26:23.356Z,96694.07
2022-12-14T19:28:50.751Z,96683.14
2022-12-14T19:31:18.266Z,96681.28
2022-12-14T19:33:46.244Z,96685.30
2022-12-14T19:36:13.890Z,96683.72
2022-12-14T19:38:41.285Z,96680.77
2022-12-14T19:41:12.934Z,96673.00
2022-12-14T19:43:40.861Z,96673.80
2022-12-14T19:46:11.115Z,96674.03
2022-12-14T19:48:39.983Z,96671.61
2022-12-14T19:51:10.755Z,96672.13
2022-12-14T19:53:43.772Z,96678.56
2022-12-14T19:56:14.228Z,96677.23
2022-12-14T19:58:41.723Z,96681.73
2022-12-14T20:01:12.367Z,96677.14
2022-12-14T20:03:41.185Z,96673.14
2022-12-14T20:06:09.006Z,96671.89
2022-12-14T20:08:37.294Z,96671.13
2022-12-14T20:11:08.696Z,96664.20
2022-12-14T20:13:37.090Z,96654.85
2022-12-14T20:16:05.952Z,96645.23
2022-12-14T20:18:33.523Z,96637.77
2022-12-14T20:21:03.601Z,96633.73
2022-12-14T20:23:34.807Z,96628.14
2022-12-14T20:26:06.565Z,96621.16
2022-12-14T20:28:34.315Z,96623.28
2022-12-14T20:31:08.035Z,96615.52
2022-12-14T20:33:37.208Z,96604.83
2022-12-14T20:36:08.453Z,96606.69
2022-12-14T20:38:36.396Z,96604.78
2022-12-14T20:41:07.880Z,96595.42
2022-12-14T20:43:37.602Z,96598.83
2022-12-14T20:46:05.628Z,96604.69
2022-12-14T20:48:33.341Z,96600.16
2022-12-14T20:51:02.749Z,96604.69
2022-12-14T20:53:30.949Z,96596.89
2022-12-14T20:56:03.748Z,96592.81
2022-12-14T20:58:31.668Z,96593.33
2022-12-14T21:01:08.292Z,96586.90
2022-12-14T21:03:36.878Z,96580.22
2022-12-14T21:06:06.077Z,96572.98
2022-12-14T21:08:38.826Z,96574.05
2022-12-14T21:11:25.094Z,96563.58
2022-12-14T21:13:53.773Z,96564.84
2022-12-14T21:16:21.639Z,96558.41
2022-12-14T21:18:49.650Z,96550.88
2022-12-14T21:21:17.262Z,96550.32
2022-12-14T21:23:44.765Z,96543.88
2022-12-14T21:26:12.680Z,96548.37
2022-12-14T21:28:40.265Z,96554.23
2022-12-14T21:31:10.919Z,96552.34
2022-12-14T21:33:38.483Z,96552.66
2022-12-14T21:36:08.114Z,96551.56
2022-12-14T21:38:36.465Z,96556.66
2022-12-14T21:41:23.739Z,96554.47
2022-12-14T21:43:52.763Z,96544.30
2022-12-14T21:46:20.645Z,96548.20
2022-12-14T21:48:48.700Z,96550.33
2022-12-14T21:51:18.346Z,96553.79
2022-12-14T21:53:58.537Z,96548.44
2022-12-14T21:56:56.887Z,96550.33
2022-12-14T21:59:35.855Z,96544.02
2022-12-14T22:02:08.671Z,96548.03
2022-12-14T22:04:39.786Z,96545.97
2022-12-14T22:07:05.690Z,96540.87
2022-12-14T22:09:33.116Z,96540.08
2022-12-14T22:12:00.315Z,96533.87
2022-12-14T22:14:27.986Z,96527.47
2022-12-14T22:16:55.449Z,96530.66
2022-12-14T22:19:24.956Z,96531.52
2022-12-14T22:21:55.620Z,96540.28
2022-12-14T22:24:23.885Z,96533.09
2022-12-14T22:26:52.211Z,96535.77
2022-12-14T22:29:21.646Z,96525.31
2022-12-14T22:31:50.833Z,96523.39
2022-12-14T22:34:22.380Z,96522.84
2022-12-14T22:36:52.556Z,96525.48
2022-12-14T22:39:20.302Z,96523.80
2022-12-14T22:41:49.199Z,96524.04
2022-12-14T22:44:16.612Z,96531.82
2022-12-14T22:46:44.148Z,96531.52
2022-12-14T22:49:16.349Z,96529.62
2022-12-14T22:51:44.896Z,96527.27
2022-12-14T22:54:23.658Z,96529.62
2022-12-14T22:57:02.533Z,96538.47
2022-12-14T22:59:38.473Z,96545.98
2022-12-14T23:02:06.419Z,96549.44
2022-12-14T23:04:37.110Z,96543.34
2022-12-14T23:07:04.960Z,96539.59
2022-12-14T23:09:50.669Z,96532.37
2022-12-14T23:12:37.073Z,96547.86
2022-12-14T23:15:24.736Z,96556.42
2022-12-14T23:18:14.874Z,96560.20
2022-12-14T23:21:00.826Z,96560.71
2022-12-14T23:23:46.612Z,96573.50
2022-12-14T23:26:32.919Z,96574.25
2022-12-14T23:29:19.234Z,96569.45
2022-12-14T23:32:05.155Z,96569.69
2022-12-14T23:34:50.900Z,96568.32
2022-12-14T23:37:36.650Z,96567.47
2022-12-14T23:40:24.597Z,96566.64
2022-12-14T23:43:10.787Z,96567.98
2022-12-14T23:45:57.229Z,96558.31
2022-12-14T23:48:43.048Z,96564.69
2022-12-14T23:51:28.955Z,96559.34
2022-12-14T23:54:14.548Z,96551.83
2022-12-14T23:57:02.373Z,96558.17
2022-12-14T23:59:49.605Z,96552.06
